createdAt,value
2023-05-05T00:01:28.694Z,8.18
2023-05-05T00:03:56.219Z,7.93
2023-05-05T00:06:23.381Z,7.40
2023-05-05T00:08:54.643Z,8.07
2023-05-05T00:11:21.735Z,8.07
2023-05-05T00:13:48.975Z,7.82
2023-05-05T00:16:21.585Z,7.30
2023-05-05T00:18:52.927Z,7.40
2023-05-05T00:21:20.436Z,9.05
2023-05-05T00:23:50.278Z,9.23
2023-05-05T00:26:17.417Z,8.70
2023-05-05T00:28:44.712Z,10.27
2023-05-05T00:31:12.013Z,10.32
2023-05-05T00:33:39.024Z,10.23
2023-05-05T00:36:06.586Z,10.80
2023-05-05T00:38:34.706Z,11.10
2023-05-05T00:41:01.865Z,10.93
2023-05-05T00:43:30.038Z,10.40
2023-05-05T00:46:24.004Z,10.75
2023-05-05T00:48:52.644Z,9.82
2023-05-05T00:51:21.434Z,9.93
2023-05-05T00:53:49.400Z,9.95
2023-05-05T00:56:20.200Z,10.02
2023-05-05T00:58:48.285Z,9.60
2023-05-05T01:01:19.038Z,9.23
2023-05-05T01:03:51.455Z,9.68
2023-05-05T01:06:56.908Z,9.00
2023-05-05T01:09:25.936Z,9.65
2023-05-05T01:12:08.371Z,9.82
2023-05-05T01:14:47.836Z,9.57
2023-05-05T01:17:20.273Z,9.43
2023-05-05T01:19:55.873Z,8.95
2023-05-05T01:22:38.689Z,9.68
2023-05-05T01:25:23.981Z,8.68
2023-05-05T01:28:05.799Z,8.40
2023-05-05T01:31:04.662Z,7.70
2023-05-05T01:33:41.698Z,7.68
2023-05-05T01:36:13.713Z,7.03
2023-05-05T01:38:46.655Z,6.93
2023-05-05T01:41:18.577Z,6.72
2023-05-05T01:43:57.529Z,6.47
2023-05-05T01:46:27.773Z,6.85
2023-05-05T01:48:57.105Z,6.88
2023-05-05T01:51:29.231Z,5.97
2023-05-05T01:54:01.841Z,6.20
2023-05-05T01:56:32.236Z,6.93
2023-05-05T01:59:08.773Z,6.55
2023-05-05T02:01:44.983Z,4.68
2023-05-05T02:04:16.130Z,4.82
2023-05-05T02:06:44.975Z,4.82
2023-05-05T02:09:17.336Z,5.00
2023-05-05T02:11:47.157Z,5.47
2023-05-05T02:14:17.731Z,4.70
2023-05-05T02:16:46.606Z,5.15
2023-05-05T02:19:15.144Z,5.68
2023-05-05T02:21:42.597Z,4.28
2023-05-05T02:24:09.834Z,4.55
2023-05-05T02:26:44.482Z,3.83
2023-05-05T02:29:19.302Z,4.15
2023-05-05T02:31:51.215Z,3.40
2023-05-05T02:34:32.475Z,3.00
2023-05-05T02:37:06.198Z,3.17
2023-05-05T02:39:59.148Z,3.05
2023-05-05T02:42:36.069Z,3.05
2023-05-05T02:45:13.520Z,2.47
2023-05-05T02:47:40.753Z,2.58
2023-05-05T02:50:09.505Z,2.50
2023-05-05T02:52:39.480Z,2.80
2023-05-05T02:55:12.906Z,2.55
2023-05-05T02:58:05.250Z,2.58
2023-05-05T03:00:34.489Z,2.92
2023-05-05T03:03:07.890Z,2.78
2023-05-05T03:05:46.053Z,2.97
2023-05-05T03:08:40.588Z,2.50
2023-05-05T03:11:14.401Z,2.47
2023-05-05T03:13:44.252Z,2.60
2023-05-05T03:16:16.198Z,2.47
2023-05-05T03:18:45.461Z,2.42
2023-05-05T03:21:13.672Z,2.42
2023-05-05T03:23:43.823Z,1.80
2023-05-05T03:26:10.808Z,2.03
2023-05-05T03:28:40.858Z,1.83
2023-05-05T03:31:13.730Z,2.00
2023-05-05T03:33:43.360Z,1.80
2023-05-05T03:36:18.607Z,1.67
2023-05-05T03:38:48.577Z,2.10
2023-05-05T03:41:18.346Z,1.92
2023-05-05T03:43:47.663Z,2.15
2023-05-05T03:46:19.519Z,2.17
2023-05-05T03:48:46.746Z,2.00
2023-05-05T03:51:13.860Z,2.30
2023-05-05T03:53:46.835Z,2.33
2023-05-05T03:56:18.245Z,2.70
2023-05-05T03:58:46.340Z,2.67
2023-05-05T04:01:13.240Z,2.30
2023-05-05T04:03:40.347Z,2.33
2023-05-05T04:06:07.698Z,2.47
2023-05-05T04:08:36.870Z,2.80
2023-05-05T04:11:06.760Z,2.75
2023-05-05T04:13:39.438Z,3.53
2023-05-05T04:16:09.951Z,3.42
2023-05-05T04:18:39.593Z,3.80
2023-05-05T04:21:12.717Z,3.90
2023-05-05T04:23:39.716Z,4.13
2023-05-05T04:26:06.981Z,4.30
2023-05-05T04:28:35.654Z,3.83
2023-05-05T04:31:05.403Z,4.28
2023-05-05T04:33:32.465Z,5.03
2023-05-05T04:36:00.590Z,4.57
2023-05-05T04:38:28.036Z,5.13
2023-05-05T04:40:55.014Z,5.45
2023-05-05T04:43:25.124Z,4.90
2023-05-05T04:45:56.133Z,5.43
2023-05-05T04:48:23.768Z,5.13
2023-05-05T04:50:52.057Z,5.97
2023-05-05T04:53:24.526Z,5.45
2023-05-05T04:55:54.164Z,5.35
2023-05-05T04:58:21.235Z,5.43
2023-05-05T05:00:48.748Z,6.47
2023-05-05T05:03:17.229Z,5.57
2023-05-05T05:05:44.486Z,6.85
2023-05-05T05:08:11.764Z,7.10
2023-05-05T05:10:42.699Z,6.63
2023-05-05T05:13:20.664Z,7.00
2023-05-05T05:15:49.995Z,6.50
2023-05-05T05:18:24.736Z,6.63
2023-05-05T05:20:59.460Z,6.20
2023-05-05T05:23:28.684Z,6.15
2023-05-05T05:25:57.988Z,6.78
2023-05-05T05:28:28.259Z,6.13
2023-05-05T05:30:55.787Z,5.90
2023-05-05T05:33:22.698Z,6.45
2023-05-05T05:35:49.685Z,5.90
2023-05-05T05:38:18.063Z,6.65
2023-05-05T05:40:45.096Z,5.55
2023-05-05T05:43:11.950Z,6.10
2023-05-05T05:45:53.497Z,6.03
2023-05-05T05:48:21.548Z,6.38
2023-05-05T05:50:51.823Z,6.38
2023-05-05T05:53:21.921Z,6.05
2023-05-05T05:55:51.393Z,6.20
2023-05-05T05:58:23.271Z,6.13
2023-05-05T06:00:51.366Z,6.35
2023-05-05T06:03:18.670Z,6.38
2023-05-05T06:05:46.922Z,7.05
2023-05-05T06:08:16.695Z,6.75
2023-05-05T06:10:48.495Z,6.43
2023-05-05T06:13:18.022Z,6.80
2023-05-05T06:15:45.090Z,7.20
2023-05-05T06:18:12.741Z,6.53
2023-05-05T06:20:43.699Z,7.30
2023-05-05T06:23:11.449Z,7.88
2023-05-05T06:25:42.688Z,6.43
2023-05-05T06:28:14.636Z,7.40
2023-05-05T06:30:41.854Z,7.38
2023-05-05T06:33:13.862Z,7.65
2023-05-05T06:35:41.140Z,7.60
2023-05-05T06:38:10.331Z,7.18
2023-05-05T06:40:46.134Z,7.20
2023-05-05T06:43:17.780Z,7.50
2023-05-05T06:45:50.705Z,7.70
2023-05-05T06:48:27.446Z,7.18
2023-05-05T06:50:56.977Z,6.53
2023-05-05T06:53:28.620Z,7.38
2023-05-05T06:55:56.113Z,7.28
2023-05-05T06:58:26.174Z,6.38
2023-05-05T07:00:55.228Z,6.53
2023-05-05T07:03:25.739Z,7.00
2023-05-05T07:05:55.529Z,6.45
2023-05-05T07:08:22.490Z,7.07
2023-05-05T07:10:50.062Z,7.28
2023-05-05T07:13:20.465Z,7.05
2023-05-05T07:15:52.331Z,6.45
2023-05-05T07:18:21.512Z,6.38
2023-05-05T07:20:49.391Z,6.70
2023-05-05T07:23:16.431Z,6.65
2023-05-05T07:25:45.804Z,6.45
2023-05-05T07:28:12.770Z,6.40
2023-05-05T07:30:39.683Z,6.13
2023-05-05T07:33:11.572Z,6.03
2023-05-05T07:35:40.551Z,6.53
2023-05-05T07:38:08.684Z,5.15
2023-05-05T07:40:39.029Z,5.22
2023-05-05T07:43:08.759Z,5.05
2023-05-05T07:45:37.621Z,5.00
2023-05-05T07:48:04.496Z,3.80
2023-05-05T07:50:31.455Z,3.83
2023-05-05T07:53:10.519Z,4.40
2023-05-05T07:55:44.265Z,4.88
2023-05-05T07:58:11.998Z,5.00
2023-05-05T08:00:44.130Z,4.50
2023-05-05T08:03:12.123Z,4.70
2023-05-05T08:05:39.713Z,4.82
2023-05-05T08:08:07.285Z,5.25
2023-05-05T08:10:34.234Z,5.20
2023-05-05T08:13:01.553Z,4.78
2023-05-05T08:15:28.264Z,4.28
2023-05-05T08:17:56.861Z,4.85
2023-05-05T08:20:28.827Z,4.75
2023-05-05T08:22:55.652Z,5.07
2023-05-05T08:25:22.345Z,5.13
2023-05-05T08:27:51.559Z,4.13
2023-05-05T08:30:20.884Z,4.53
2023-05-05T08:32:47.651Z,4.13
2023-05-05T08:35:14.349Z,4.72
2023-05-05T08:37:41.174Z,4.80
2023-05-05T08:40:11.934Z,4.97
2023-05-05T08:42:39.987Z,5.38
2023-05-05T08:45:11.083Z,4.20
2023-05-05T08:47:39.033Z,4.40
2023-05-05T08:50:13.683Z,5.00
2023-05-05T08:52:44.546Z,5.13
2023-05-05T08:55:21.589Z,4.55
2023-05-05T08:57:53.332Z,4.97
2023-05-05T09:00:20.916Z,4.82
2023-05-05T09:02:48.102Z,5.82
2023-05-05T09:05:15.464Z,4.30
2023-05-05T09:07:43.806Z,3.90
2023-05-05T09:10:11.815Z,3.53
2023-05-05T09:12:44.355Z,3.00
2023-05-05T09:15:17.245Z,2.75
2023-05-05T09:17:45.575Z,2.78
2023-05-05T09:20:13.946Z,2.50
2023-05-05T09:22:43.238Z,2.30
2023-05-05T09:25:12.992Z,2.63
2023-05-05T09:27:45.841Z,2.17
2023-05-05T09:30:16.842Z,2.38
2023-05-05T09:32:49.700Z,2.80
2023-05-05T09:35:17.460Z,2.38
2023-05-05T09:37:44.880Z,2.15
2023-05-05T09:40:13.816Z,2.20
2023-05-05T09:42:44.400Z,2.50
2023-05-05T09:45:20.357Z,2.30
2023-05-05T09:47:48.226Z,3.20
2023-05-05T09:50:18.614Z,2.67
2023-05-05T09:53:15.059Z,2.60
2023-05-05T09:55:42.059Z,2.38
2023-05-05T09:58:23.528Z,2.92
2023-05-05T10:00:53.395Z,2.65
2023-05-05T10:03:20.060Z,2.60
2023-05-05T10:05:47.919Z,2.95
2023-05-05T10:08:14.792Z,2.75
2023-05-05T10:10:52.547Z,2.40
2023-05-05T10:13:23.324Z,2.40
2023-05-05T10:15:53.895Z,3.05
2023-05-05T10:18:25.060Z,2.25
2023-05-05T10:21:02.606Z,2.60
2023-05-05T10:23:39.373Z,2.35
2023-05-05T10:26:07.728Z,2.20
2023-05-05T10:29:05.856Z,1.73
2023-05-05T10:31:54.417Z,1.53
2023-05-05T10:34:29.713Z,1.60
2023-05-05T10:37:00.241Z,1.58
2023-05-05T10:39:28.121Z,1.05
2023-05-05T10:41:59.989Z,1.45
2023-05-05T10:44:33.547Z,1.80
2023-05-05T10:47:01.954Z,2.13
2023-05-05T10:49:49.263Z,2.72
2023-05-05T10:52:18.868Z,2.25
2023-05-05T10:55:01.300Z,1.70
2023-05-05T10:57:32.339Z,1.63
2023-05-05T10:59:59.050Z,1.80
2023-05-05T11:02:30.100Z,1.92
2023-05-05T11:05:09.771Z,1.40
2023-05-05T11:07:37.800Z,1.50
2023-05-05T11:10:11.410Z,1.50
2023-05-05T11:13:00.293Z,1.42
2023-05-05T11:15:29.990Z,1.67
2023-05-05T11:18:07.428Z,1.40
2023-05-05T11:20:44.506Z,1.33
2023-05-05T11:23:11.057Z,1.40
2023-05-05T11:25:38.151Z,1.58
2023-05-05T11:28:14.941Z,1.42
2023-05-05T11:30:57.487Z,1.98
2023-05-05T11:33:31.681Z,1.40
2023-05-05T11:36:06.802Z,1.67
2023-05-05T11:39:05.527Z,1.25
2023-05-05T11:41:32.267Z,1.45
2023-05-05T11:44:20.795Z,1.35
2023-05-05T11:46:55.704Z,1.00
2023-05-05T11:49:29.663Z,1.10
2023-05-05T11:52:04.358Z,1.00
2023-05-05T11:54:31.712Z,1.08
2023-05-05T11:57:01.933Z,1.00
2023-05-05T11:59:28.551Z,1.00
2023-05-05T12:01:55.290Z,1.02
2023-05-05T12:04:24.634Z,1.13
2023-05-05T12:06:51.781Z,1.10
2023-05-05T12:09:20.319Z,1.30
2023-05-05T12:11:57.090Z,1.17
2023-05-05T12:14:25.906Z,1.20
2023-05-05T12:17:01.910Z,1.13
2023-05-05T12:19:33.412Z,0.93
2023-05-05T12:22:01.413Z,1.10
2023-05-05T12:24:28.545Z,1.08
2023-05-05T12:26:56.120Z,1.17
2023-05-05T12:29:28.893Z,0.90
2023-05-05T12:32:00.803Z,1.20
2023-05-05T12:34:27.724Z,1.30
2023-05-05T12:36:54.870Z,1.20
2023-05-05T12:39:21.782Z,1.30
2023-05-05T12:41:48.583Z,1.42
2023-05-05T12:44:15.157Z,1.48
2023-05-05T12:46:46.099Z,1.45
2023-05-05T12:49:15.552Z,1.58
2023-05-05T12:51:56.562Z,1.52
2023-05-05T12:54:29.627Z,1.52
2023-05-05T12:56:58.828Z,1.75
2023-05-05T12:59:25.472Z,1.70
2023-05-05T13:01:52.815Z,1.75
2023-05-05T13:04:25.386Z,2.40
2023-05-05T13:07:12.597Z,2.03
2023-05-05T13:09:42.052Z,2.17
2023-05-05T13:12:14.031Z,2.30
2023-05-05T13:14:41.581Z,2.42
2023-05-05T13:17:11.844Z,2.70
2023-05-05T13:19:42.614Z,2.92
2023-05-05T13:22:13.115Z,3.05
2023-05-05T13:24:50.977Z,3.92
2023-05-05T13:27:19.935Z,2.55
2023-05-05T13:29:46.790Z,2.45
2023-05-05T13:32:15.936Z,2.67
2023-05-05T13:34:44.418Z,2.83
2023-05-05T13:37:11.070Z,2.70
2023-05-05T13:39:40.210Z,2.03
2023-05-05T13:42:09.020Z,2.38
2023-05-05T13:44:35.758Z,2.90
2023-05-05T13:47:04.937Z,1.98
2023-05-05T13:49:31.522Z,1.65
2023-05-05T13:52:00.263Z,1.88
2023-05-05T13:54:30.038Z,2.50
2023-05-05T13:56:57.921Z,3.30
2023-05-05T13:59:25.798Z,2.45
2023-05-05T14:01:52.492Z,2.60
2023-05-05T14:04:19.175Z,2.28
2023-05-05T14:06:45.899Z,1.98
2023-05-05T14:09:13.764Z,2.00
2023-05-05T14:11:41.338Z,1.90
2023-05-05T14:14:08.267Z,1.50
2023-05-05T14:16:37.268Z,1.38
2023-05-05T14:19:04.060Z,1.50
2023-05-05T14:21:35.847Z,1.33
2023-05-05T14:24:02.478Z,1.13
2023-05-05T14:26:29.300Z,1.23
2023-05-05T14:28:56.237Z,1.02
2023-05-05T14:31:23.193Z,1.38
2023-05-05T14:33:49.916Z,1.27
2023-05-05T14:36:16.559Z,1.20
2023-05-05T14:38:45.700Z,1.13
2023-05-05T14:41:13.301Z,1.10
2023-05-05T14:43:40.761Z,1.10
2023-05-05T14:46:07.660Z,1.02
2023-05-05T14:48:34.718Z,0.93
2023-05-05T14:51:02.456Z,0.82
2023-05-05T14:53:29.079Z,1.20
2023-05-05T14:55:56.634Z,1.00
2023-05-05T14:58:24.809Z,1.30
2023-05-05T15:00:53.025Z,1.35
2023-05-05T15:03:19.700Z,1.20
2023-05-05T15:05:46.495Z,0.98
2023-05-05T15:08:14.596Z,1.17
2023-05-05T15:10:43.868Z,0.88
2023-05-05T15:13:13.140Z,1.42
2023-05-05T15:15:39.958Z,1.10
2023-05-05T15:18:07.067Z,1.10
2023-05-05T15:20:33.967Z,1.10
2023-05-05T15:23:01.518Z,1.02
2023-05-05T15:25:30.402Z,1.13
2023-05-05T15:28:00.955Z,1.30
2023-05-05T15:30:29.956Z,1.20
2023-05-05T15:32:58.810Z,1.27
2023-05-05T15:35:25.688Z,1.15
2023-05-05T15:37:54.504Z,1.15
2023-05-05T15:40:25.945Z,1.40
2023-05-05T15:42:52.686Z,1.38
2023-05-05T15:45:19.876Z,1.33
2023-05-05T15:47:46.815Z,1.42
2023-05-05T15:50:14.404Z,1.40
2023-05-05T15:52:41.756Z,1.40
2023-05-05T15:55:09.421Z,1.80
2023-05-05T15:57:36.419Z,1.10
2023-05-05T16:00:03.343Z,1.08
2023-05-05T16:02:30.159Z,1.20
2023-05-05T16:04:56.979Z,1.10
2023-05-05T16:07:23.547Z,0.90
2023-05-05T16:09:50.172Z,0.90
2023-05-05T16:12:16.762Z,1.10
2023-05-05T16:14:43.717Z,1.25
2023-05-05T16:17:13.354Z,1.25
2023-05-05T16:19:39.940Z,1.20
2023-05-05T16:22:09.286Z,1.33
2023-05-05T16:24:35.933Z,1.50
2023-05-05T16:27:04.778Z,1.52
2023-05-05T16:29:31.895Z,1.40
2023-05-05T16:32:00.994Z,1.17
2023-05-05T16:34:27.922Z,1.30
2023-05-05T16:36:57.006Z,1.52
2023-05-05T16:39:23.565Z,1.17
2023-05-05T16:41:50.260Z,1.20
2023-05-05T16:44:16.843Z,1.13
2023-05-05T16:46:43.616Z,1.50
2023-05-05T16:49:10.201Z,1.40
2023-05-05T16:51:36.782Z,1.40
2023-05-05T16:54:05.804Z,1.30
2023-05-05T16:56:32.522Z,1.30
2023-05-05T16:58:59.100Z,1.50
2023-05-05T17:01:25.784Z,1.40
2023-05-05T17:03:52.581Z,1.40
2023-05-05T17:06:19.393Z,1.40
2023-05-05T17:08:48.710Z,1.65
2023-05-05T17:11:15.580Z,1.15
2023-05-05T17:13:42.222Z,1.35
2023-05-05T17:16:08.913Z,1.27
2023-05-05T17:18:35.539Z,1.27
2023-05-05T17:21:03.905Z,1.27
2023-05-05T17:23:33.044Z,1.38
2023-05-05T17:25:59.697Z,1.58
2023-05-05T17:28:26.508Z,1.33
2023-05-05T17:30:53.369Z,1.40
2023-05-05T17:33:22.430Z,1.45
2023-05-05T17:35:49.090Z,1.50
2023-05-05T17:38:18.495Z,1.10
2023-05-05T17:40:48.148Z,1.30
2023-05-05T17:43:16.821Z,1.17
2023-05-05T17:45:46.826Z,1.27
2023-05-05T17:48:13.404Z,1.30
2023-05-05T17:50:42.657Z,1.77
2023-05-05T17:53:10.727Z,1.52
2023-05-05T17:55:39.489Z,1.67
2023-05-05T17:58:06.117Z,1.63
2023-05-05T18:00:35.814Z,1.45
2023-05-05T18:03:02.490Z,1.80
2023-05-05T18:05:30.849Z,1.52
2023-05-05T18:07:57.557Z,2.00
2023-05-05T18:10:26.749Z,2.03
2023-05-05T18:12:53.494Z,2.00
2023-05-05T18:15:20.388Z,2.00
2023-05-05T18:17:47.582Z,1.73
2023-05-05T18:20:14.188Z,1.90
2023-05-05T18:22:40.910Z,2.17
2023-05-05T18:25:08.728Z,1.95
2023-05-05T18:27:40.174Z,2.05
2023-05-05T18:30:09.410Z,2.30
2023-05-05T18:32:40.882Z,2.38
2023-05-05T18:35:10.533Z,2.88
2023-05-05T18:37:37.343Z,3.67
2023-05-05T18:40:04.462Z,4.18
2023-05-05T18:42:31.193Z,4.90
2023-05-05T18:44:57.912Z,4.70
2023-05-05T18:47:24.546Z,4.68
2023-05-05T18:49:51.553Z,4.78
2023-05-05T18:52:18.418Z,3.85
2023-05-05T18:54:47.532Z,3.45
2023-05-05T18:57:14.152Z,3.78
2023-05-05T18:59:40.854Z,3.72
2023-05-05T19:02:07.960Z,3.60
2023-05-05T19:04:37.473Z,3.78
2023-05-05T19:07:05.097Z,4.20
2023-05-05T19:09:31.764Z,4.80
2023-05-05T19:11:58.371Z,4.38
2023-05-05T19:14:25.616Z,4.88
2023-05-05T19:16:52.625Z,4.10
2023-05-05T19:19:19.403Z,4.68
2023-05-05T19:21:45.992Z,4.80
2023-05-05T19:24:12.702Z,4.28
2023-05-05T19:26:39.773Z,5.38
2023-05-05T19:29:06.570Z,5.18
2023-05-05T19:31:33.249Z,5.32
2023-05-05T19:34:04.810Z,5.10
2023-05-05T19:36:32.476Z,6.00
2023-05-05T19:39:06.066Z,6.10
2023-05-05T19:41:35.286Z,5.80
2023-05-05T19:44:02.152Z,5.28
2023-05-05T19:46:29.233Z,5.75
2023-05-05T19:48:56.047Z,5.97
2023-05-05T19:51:22.948Z,6.38
2023-05-05T19:53:51.827Z,6.80
2023-05-05T19:56:18.470Z,6.60
2023-05-05T19:59:02.387Z,6.60
2023-05-05T20:01:29.517Z,7.22
2023-05-05T20:03:57.012Z,5.88
2023-05-05T20:06:27.147Z,6.60
2023-05-05T20:08:56.166Z,6.03
2023-05-05T20:11:23.030Z,5.90
2023-05-05T20:13:50.302Z,5.88
2023-05-05T20:16:17.026Z,6.38
2023-05-05T20:18:46.533Z,6.10
2023-05-05T20:21:13.729Z,6.35
2023-05-05T20:23:40.551Z,6.28
2023-05-05T20:26:07.744Z,6.22
2023-05-05T20:28:39.704Z,6.32
2023-05-05T20:31:07.122Z,6.18
2023-05-05T20:33:34.236Z,6.70
2023-05-05T20:36:01.161Z,6.07
2023-05-05T20:38:27.795Z,5.90
2023-05-05T20:40:54.423Z,6.10
2023-05-05T20:43:21.191Z,6.10
2023-05-05T20:45:50.108Z,6.60
2023-05-05T20:48:16.852Z,6.25
2023-05-05T20:50:43.731Z,5.80
2023-05-05T20:53:12.018Z,6.03
2023-05-05T20:55:38.613Z,5.80
2023-05-05T20:58:07.434Z,5.90
2023-05-05T21:00:39.073Z,6.20
2023-05-05T21:03:08.161Z,6.05
2023-05-05T21:05:36.007Z,6.35
2023-05-05T21:08:02.753Z,6.07
2023-05-05T21:10:29.527Z,6.82
2023-05-05T21:12:56.306Z,6.90
2023-05-05T21:15:25.342Z,5.80
2023-05-05T21:17:51.980Z,6.60
2023-05-05T21:20:21.160Z,7.03
2023-05-05T21:22:47.888Z,7.50
2023-05-05T21:25:17.380Z,6.60
2023-05-05T21:27:49.235Z,6.57
2023-05-05T21:30:16.800Z,8.13
2023-05-05T21:32:44.112Z,7.93
2023-05-05T21:35:10.860Z,7.75
2023-05-05T21:37:39.122Z,7.88
2023-05-05T21:40:13.450Z,7.97
2023-05-05T21:42:43.559Z,6.35
2023-05-05T21:45:11.456Z,6.30
2023-05-05T21:47:40.378Z,6.43
2023-05-05T21:50:08.019Z,6.82
2023-05-05T21:52:37.464Z,6.38
2023-05-05T21:55:06.787Z,7.55
2023-05-05T21:57:33.586Z,7.25
2023-05-05T22:00:00.264Z,6.55
2023-05-05T22:02:26.893Z,6.65
2023-05-05T22:04:56.041Z,6.97
2023-05-05T22:07:22.686Z,7.25
2023-05-05T22:09:49.231Z,6.65
2023-05-05T22:12:16.392Z,7.53
2023-05-05T22:14:43.265Z,7.25
2023-05-05T22:17:09.925Z,7.03
2023-05-05T22:19:36.499Z,6.88
2023-05-05T22:22:03.341Z,6.47
2023-05-05T22:24:30.053Z,6.40
2023-05-05T22:26:57.420Z,6.22
2023-05-05T22:29:25.179Z,6.32
2023-05-05T22:31:54.183Z,6.57
2023-05-05T22:34:23.932Z,6.85
2023-05-05T22:36:50.518Z,6.32
2023-05-05T22:39:18.540Z,6.45
2023-05-05T22:41:45.173Z,6.88
2023-05-05T22:44:11.798Z,6.90
2023-05-05T22:46:38.513Z,7.90
2023-05-05T22:49:06.516Z,7.43
2023-05-05T22:51:33.342Z,8.18
2023-05-05T22:54:02.450Z,7.95
2023-05-05T22:56:29.158Z,7.95
2023-05-05T22:58:56.088Z,7.63
2023-05-05T23:01:23.047Z,7.13
2023-05-05T23:03:49.747Z,8.10
2023-05-05T23:06:16.495Z,7.22
2023-05-05T23:08:45.616Z,7.70
2023-05-05T23:11:14.303Z,7.63
2023-05-05T23:13:41.114Z,7.97
2023-05-05T23:16:07.876Z,8.50
2023-05-05T23:18:36.337Z,8.10
2023-05-05T23:21:02.935Z,8.30
2023-05-05T23:23:30.037Z,8.68
2023-05-05T23:25:58.839Z,8.43
2023-05-05T23:28:25.456Z,8.60
2023-05-05T23:30:52.053Z,7.85
2023-05-05T23:33:21.013Z,9.82
2023-05-05T23:35:47.941Z,8.43
2023-05-05T23:38:14.671Z,8.23
2023-05-05T23:40:41.372Z,8.25
2023-05-05T23:43:11.984Z,8.32
2023-05-05T23:45:38.696Z,8.05
2023-05-05T23:48:05.917Z,8.85
2023-05-05T23:50:32.583Z,8.43
2023-05-05T23:53:01.775Z,8.48
2023-05-05T23:55:28.531Z,9.23
2023-05-05T23:57:57.529Z,8.48
